Time;durP1;ratioP1;P1;durP2;ratioP2;P2;SDS_P1;SDS_P2;PMS_P1;PMS_P2;Temp;Humidity;BMP_temperature;BMP_pressure;BME280_temperature;BME280_humidity;BME280_pressure;Samples;Min_cycle;Max_cycle;Signal;HPM_P1;HPM_P2
2022/07/26 00:02:04;;;;;;;9.43;2.10;;;21.80;99.90;;;;;;5087056;28;20097;-72
2022/07/26 00:04:30;;;;;;;9.48;2.00;;;21.80;99.90;;;;;;5089734;28;20032;-72
2022/07/26 00:06:56;;;;;;;6.10;2.13;;;21.80;99.90;;;;;;5086579;28;20464;-72
2022/07/26 00:09:21;;;;;;;7.68;1.90;;;21.80;99.90;;;;;;5088796;28;20427;-73
2022/07/26 00:11:56;;;;;;;5.63;1.80;;;21.80;99.90;;;;;;5086584;28;20056;-72
2022/07/26 00:14:22;;;;;;;6.10;2.45;;;21.90;99.90;;;;;;5083063;28;20024;-72
2022/07/26 00:16:48;;;;;;;7.57;1.63;;;21.70;99.90;;;;;;5092016;28;20487;-73
2022/07/26 00:19:13;;;;;;;6.03;2.08;;;21.80;99.90;;;;;;5079132;28;20027;-72
2022/07/26 00:21:39;;;;;;;7.30;1.85;;;21.80;99.90;;;;;;5083736;28;20698;-73
2022/07/26 00:24:06;;;;;;;4.43;1.50;;;21.80;99.90;;;;;;5086437;28;20021;-73
2022/07/26 00:26:32;;;;;;;7.43;1.80;;;21.70;99.90;;;;;;5084878;28;20112;-73
2022/07/26 00:28:58;;;;;;;7.60;1.63;;;21.70;99.90;;;;;;5088143;28;20040;-72
2022/07/26 00:31:24;;;;;;;4.45;1.70;;;21.70;99.90;;;;;;5077762;28;20017;-72
2022/07/26 00:33:49;;;;;;;5.60;1.67;;;21.70;99.90;;;;;;5085537;28;20020;-73
2022/07/26 00:36:15;;;;;;;3.83;1.52;;;21.60;99.90;;;;;;5087008;28;20403;-72
2022/07/26 00:38:41;;;;;;;8.45;2.17;;;21.60;99.90;;;;;;5086722;28;20485;-72
2022/07/26 00:41:08;;;;;;;5.75;1.90;;;21.50;99.90;;;;;;5078853;28;20032;-71
2022/07/26 00:43:33;;;;;;;6.90;1.88;;;21.40;99.90;;;;;;5081767;28;20035;-73
2022/07/26 00:45:59;;;;;;;8.55;1.95;;;21.50;99.90;;;;;;5077529;28;20029;-72
2022/07/26 00:48:25;;;;;;;5.43;1.80;;;21.40;99.90;;;;;;5080713;28;20091;-74
2022/07/26 00:50:53;;;;;;;8.20;2.22;;;21.40;99.90;;;;;;5084726;28;20032;-77
2022/07/26 00:53:20;;;;;;;7.07;1.88;;;21.40;99.90;;;;;;5080868;28;20055;-76
2022/07/26 00:55:48;;;;;;;11.23;2.08;;;21.40;99.90;;;;;;5083842;28;20031;-77
2022/07/26 00:58:13;;;;;;;12.05;2.20;;;21.40;99.90;;;;;;5081416;28;20070;-77
2022/07/26 01:00:39;;;;;;;7.38;2.00;;;21.30;99.90;;;;;;5085292;28;20048;-76
2022/07/26 01:03:05;;;;;;;6.32;2.17;;;21.30;99.90;;;;;;5087881;28;20531;-77
2022/07/26 01:05:31;;;;;;;9.60;2.50;;;21.30;99.90;;;;;;5084036;28;20028;-77
2022/07/26 01:07:58;;;;;;;8.23;2.25;;;21.30;99.90;;;;;;5079386;28;20028;-76
2022/07/26 01:10:24;;;;;;;6.03;2.10;;;21.30;99.90;;;;;;5080425;28;20437;-75
2022/07/26 01:12:50;;;;;;;11.50;2.30;;;21.30;99.90;;;;;;5086208;28;20022;-77
2022/07/26 01:15:16;;;;;;;9.27;2.22;;;21.30;99.90;;;;;;5083956;28;20039;-76
2022/07/26 01:17:42;;;;;;;5.50;2.25;;;21.30;99.90;;;;;;5079015;28;20043;-75
2022/07/26 01:20:09;;;;;;;7.72;2.55;;;21.20;99.90;;;;;;5079925;28;20024;-76
2022/07/26 01:22:35;;;;;;;7.28;1.90;;;21.20;99.90;;;;;;5080946;28;20488;-76
2022/07/26 01:25:01;;;;;;;7.60;1.70;;;21.20;99.90;;;;;;5085618;28;20021;-76
2022/07/26 01:27:26;;;;;;;7.28;2.20;;;21.20;99.90;;;;;;5085780;28;20105;-76
2022/07/26 01:29:52;;;;;;;7.60;2.00;;;21.20;99.90;;;;;;5085197;28;20041;-77
2022/07/26 01:32:18;;;;;;;7.85;2.42;;;21.20;99.90;;;;;;5090503;28;20546;-76
2022/07/26 01:34:44;;;;;;;6.75;2.20;;;21.20;99.90;;;;;;5083713;28;20051;-77
2022/07/26 01:37:10;;;;;;;5.63;2.08;;;21.20;99.90;;;;;;5088259;28;20032;-77
2022/07/26 01:39:35;;;;;;;5.80;1.95;;;21.10;99.90;;;;;;5084749;28;20469;-76
2022/07/26 01:42:01;;;;;;;7.03;2.42;;;21.20;99.90;;;;;;5089236;28;20525;-76
2022/07/26 01:44:27;;;;;;;6.18;2.30;;;21.20;99.90;;;;;;5085009;28;20073;-77
2022/07/26 01:46:52;;;;;;;7.93;2.20;;;21.10;99.90;;;;;;5084536;28;20366;-77
2022/07/26 01:49:18;;;;;;;7.95;2.38;;;21.20;99.90;;;;;;5086840;28;20119;-77
2022/07/26 01:51:44;;;;;;;9.40;2.40;;;21.20;99.90;;;;;;5083792;28;20059;-76
2022/07/26 01:54:10;;;;;;;9.75;2.85;;;21.20;99.90;;;;;;5081354;28;20060;-77
2022/07/26 01:56:35;;;;;;;8.05;1.90;;;21.20;99.90;;;;;;5082921;28;20039;-77
2022/07/26 01:59:02;;;;;;;8.27;2.22;;;21.10;99.90;;;;;;5077125;28;20042;-76
2022/07/26 02:01:27;;;;;;;6.30;2.15;;;21.10;99.90;;;;;;5083478;28;20099;-75
2022/07/26 02:03:53;;;;;;;10.38;2.53;;;21.10;99.90;;;;;;5087320;28;20103;-76
2022/07/26 02:06:19;;;;;;;9.68;2.30;;;21.10;99.90;;;;;;5083288;28;20035;-76
2022/07/26 02:08:45;;;;;;;9.98;2.40;;;21.10;99.90;;;;;;5080239;28;20077;-76
2022/07/26 02:11:10;;;;;;;8.30;2.53;;;21.10;99.90;;;;;;5080215;28;20040;-77
2022/07/26 02:13:38;;;;;;;9.73;2.30;;;21.10;99.90;;;;;;5088384;28;20500;-76
2022/07/26 02:16:07;;;;;;;9.40;2.63;;;21.00;99.90;;;;;;5080332;28;20019;-77
2022/07/26 02:18:33;;;;;;;6.53;2.03;;;21.10;99.90;;;;;;5084807;28;20031;-77
2022/07/26 02:21:00;;;;;;;8.52;2.42;;;21.10;99.90;;;;;;5082300;28;20448;-77
2022/07/26 02:23:26;;;;;;;8.25;3.28;;;21.10;99.90;;;;;;5085126;28;20052;-77
2022/07/26 02:25:54;;;;;;;13.70;3.13;;;21.10;99.90;;;;;;5083461;28;20092;-76
2022/07/26 02:28:20;;;;;;;10.65;2.55;;;21.10;99.90;;;;;;5089033;28;20020;-75
2022/07/26 02:30:47;;;;;;;12.75;2.67;;;21.10;99.90;;;;;;5081631;28;20032;-76
2022/07/26 02:33:13;;;;;;;9.80;2.92;;;21.10;99.90;;;;;;5083162;28;20097;-76
2022/07/26 02:35:41;;;;;;;7.85;2.17;;;21.20;99.90;;;;;;5080390;28;20025;-76
2022/07/26 02:38:08;;;;;;;13.70;2.65;;;21.10;99.90;;;;;;5089252;28;20024;-76
2022/07/26 02:40:36;;;;;;;12.05;2.78;;;21.10;99.90;;;;;;5081046;28;20428;-77
2022/07/26 02:43:03;;;;;;;8.25;2.72;;;21.10;99.90;;;;;;5082912;28;20017;-77
2022/07/26 02:45:29;;;;;;;13.13;2.95;;;21.10;99.90;;;;;;5082922;28;20036;-76
2022/07/26 02:47:55;;;;;;;10.13;2.80;;;21.20;99.90;;;;;;5085969;28;20024;-76
2022/07/26 02:50:23;;;;;;;10.35;2.95;;;21.10;99.90;;;;;;5088820;28;20035;-72
2022/07/26 02:52:50;;;;;;;9.40;2.90;;;21.00;99.90;;;;;;5083124;28;20035;-76
2022/07/26 02:55:18;;;;;;;10.45;3.22;;;21.10;99.90;;;;;;5085779;28;20033;-74
2022/07/26 02:57:44;;;;;;;7.45;2.50;;;21.10;99.90;;;;;;5089599;28;20455;-76
2022/07/26 03:00:11;;;;;;;9.65;2.85;;;21.10;99.90;;;;;;5084768;28;20103;-77
2022/07/26 03:02:37;;;;;;;13.07;2.67;;;21.10;99.90;;;;;;5082550;28;20020;-76
2022/07/26 03:05:04;;;;;;;12.27;2.97;;;21.10;99.90;;;;;;5083116;28;20123;-76
2022/07/26 03:07:30;;;;;;;11.02;3.05;;;21.10;99.90;;;;;;5083515;28;20020;-77
2022/07/26 03:09:57;;;;;;;7.65;2.78;;;21.10;99.90;;;;;;5079756;28;20525;-76
2022/07/26 03:12:22;;;;;;;12.32;3.20;;;21.10;99.90;;;;;;5079416;28;20020;-77
2022/07/26 03:14:48;;;;;;;13.25;3.08;;;21.10;99.90;;;;;;5085675;28;20035;-76
2022/07/26 03:17:14;;;;;;;10.77;2.55;;;21.10;99.90;;;;;;5082765;28;20042;-77
2022/07/26 03:19:39;;;;;;;10.10;3.40;;;21.10;99.90;;;;;;5082961;28;20036;-76
2022/07/26 03:22:05;;;;;;;8.52;2.80;;;21.00;99.90;;;;;;5087327;28;20465;-77
2022/07/26 03:24:30;;;;;;;12.25;3.00;;;21.10;99.90;;;;;;5086049;28;20079;-76
2022/07/26 03:26:56;;;;;;;11.48;3.00;;;21.00;99.90;;;;;;5086374;28;20099;-76
2022/07/26 03:29:22;;;;;;;11.75;2.97;;;21.10;99.90;;;;;;5079499;28;20055;-77
2022/07/26 03:31:47;;;;;;;18.10;3.60;;;21.00;99.90;;;;;;5080342;28;20031;-76
2022/07/26 03:34:13;;;;;;;9.90;3.25;;;21.10;99.90;;;;;;5086296;28;20465;-76
2022/07/26 03:36:39;;;;;;;10.52;2.95;;;21.00;99.90;;;;;;5082570;28;20028;-76
2022/07/26 03:39:04;;;;;;;12.07;3.30;;;21.00;99.90;;;;;;5083387;28;20020;-76
2022/07/26 03:41:30;;;;;;;10.40;3.33;;;21.10;99.90;;;;;;5081978;28;20537;-76
2022/07/26 03:43:56;;;;;;;13.70;3.78;;;21.10;99.90;;;;;;5078374;28;20092;-77
2022/07/26 03:46:22;;;;;;;9.68;3.35;;;21.10;99.90;;;;;;5079916;28;20092;-76
2022/07/26 03:48:47;;;;;;;12.10;3.30;;;21.20;99.90;;;;;;5085578;28;20510;-77
2022/07/26 03:51:13;;;;;;;10.60;3.58;;;21.10;99.90;;;;;;5083160;28;20036;-76
2022/07/26 03:53:39;;;;;;;9.88;2.97;;;21.10;99.90;;;;;;5077709;28;20580;-75
2022/07/26 03:58:49;;;;;;;13.13;3.20;;;21.10;99.90;;;;;;5082136;28;20072;-77
2022/07/26 04:01:15;;;;;;;10.98;2.88;;;21.10;99.90;;;;;;5084041;28;20024;-77
2022/07/26 04:03:40;;;;;;;14.23;3.28;;;21.10;99.90;;;;;;5080717;28;20036;-76
2022/07/26 04:06:06;;;;;;;12.38;3.50;;;21.10;99.90;;;;;;5089699;28;20062;-76
2022/07/26 04:08:32;;;;;;;9.65;2.92;;;21.00;99.90;;;;;;5083581;28;20028;-76
2022/07/26 04:10:58;;;;;;;11.80;3.63;;;21.00;99.90;;;;;;5078704;28;20032;-76
2022/07/26 04:13:23;;;;;;;13.07;3.60;;;21.10;99.90;;;;;;5082354;28;20023;-76
2022/07/26 04:15:49;;;;;;;14.52;3.25;;;21.10;99.90;;;;;;5083030;28;20158;-76
2022/07/26 04:18:15;;;;;;;12.05;3.13;;;21.10;99.90;;;;;;5082264;28;20466;-76
2022/07/26 04:20:41;;;;;;;11.32;3.55;;;21.10;99.90;;;;;;5077113;28;20032;-77
2022/07/26 04:23:07;;;;;;;12.60;3.25;;;21.20;99.90;;;;;;5086649;28;20538;-75
2022/07/26 04:25:33;;;;;;;14.18;4.72;;;21.20;99.90;;;;;;5077397;28;20531;-77
2022/07/26 04:27:59;;;;;;;7.30;2.70;;;21.20;99.90;;;;;;5083440;28;20036;-76
2022/07/26 04:30:25;;;;;;;11.52;2.80;;;21.10;99.90;;;;;;5078373;28;20107;-77
2022/07/26 04:32:51;;;;;;;12.93;3.10;;;21.10;99.90;;;;;;5082953;28;20021;-77
2022/07/26 04:35:16;;;;;;;10.18;3.15;;;21.20;99.90;;;;;;5076537;28;20032;-76
2022/07/26 04:37:44;;;;;;;9.65;3.55;;;21.10;99.90;;;;;;5081125;28;20085;-77
2022/07/26 04:40:14;;;;;;;15.85;3.80;;;21.20;99.90;;;;;;5081663;28;20032;-77
2022/07/26 04:42:40;;;;;;;14.75;3.80;;;21.20;99.90;;;;;;5081534;28;20488;-77
2022/07/26 04:45:06;;;;;;;13.98;3.55;;;21.20;99.90;;;;;;5083337;28;20024;-77
2022/07/26 04:47:32;;;;;;;12.07;3.38;;;21.20;99.90;;;;;;5084591;28;20031;-76
2022/07/26 04:49:57;;;;;;;13.55;3.80;;;21.20;99.90;;;;;;5083813;28;20393;-75
2022/07/26 04:52:23;;;;;;;17.15;4.70;;;21.20;99.90;;;;;;5074517;28;20025;-77
2022/07/26 04:54:49;;;;;;;17.48;4.00;;;21.20;99.90;;;;;;5082085;28;20088;-77
2022/07/26 04:57:14;;;;;;;13.35;3.33;;;21.20;99.90;;;;;;5078126;28;20033;-77
2022/07/26 04:59:40;;;;;;;13.50;3.65;;;21.20;99.90;;;;;;5083380;28;20035;-76
2022/07/26 05:02:06;;;;;;;17.00;4.60;;;21.20;99.90;;;;;;5082320;28;20025;-77
2022/07/26 05:04:31;;;;;;;16.60;3.97;;;21.20;99.90;;;;;;5084526;28;20546;-77
2022/07/26 05:07:01;;;;;;;11.77;3.63;;;21.20;99.90;;;;;;5091308;28;20024;-76
2022/07/26 05:09:28;;;;;;;14.43;4.07;;;21.30;99.90;;;;;;5083415;28;20508;-76
2022/07/26 05:11:53;;;;;;;14.68;4.03;;;21.30;99.90;;;;;;5084946;28;20039;-76
2022/07/26 05:14:19;;;;;;;16.27;4.65;;;21.30;99.90;;;;;;5084906;28;20020;-76
2022/07/26 05:16:45;;;;;;;17.33;3.17;;;21.30;99.90;;;;;;5088324;28;20056;-77
2022/07/26 05:19:12;;;;;;;12.50;3.83;;;21.30;99.90;;;;;;5083771;28;20020;-77
2022/07/26 05:21:37;;;;;;;14.50;3.83;;;21.30;99.90;;;;;;5079437;28;20037;-76
2022/07/26 05:24:03;;;;;;;13.60;4.03;;;21.30;99.90;;;;;;5089804;28;20476;-75
2022/07/26 05:26:29;;;;;;;10.77;4.22;;;21.40;99.90;;;;;;5083562;28;20027;-75
2022/07/26 05:28:54;;;;;;;15.45;4.22;;;21.40;99.90;;;;;;5080177;28;20442;-76
2022/07/26 05:31:20;;;;;;;14.68;4.40;;;21.40;99.90;;;;;;5084061;28;20033;-76
2022/07/26 05:33:46;;;;;;;13.43;3.90;;;21.40;99.90;;;;;;5089899;28;20036;-76
2022/07/26 05:36:11;;;;;;;14.95;3.50;;;21.40;99.90;;;;;;5079687;28;20036;-77
2022/07/26 05:38:37;;;;;;;15.88;4.00;;;21.50;99.90;;;;;;5083575;28;20139;-76
2022/07/26 05:41:03;;;;;;;11.45;4.22;;;21.50;99.90;;;;;;5086450;28;20028;-76
2022/07/26 05:43:30;;;;;;;14.75;4.32;;;21.50;99.90;;;;;;5080780;28;20038;-79
2022/07/26 05:45:56;;;;;;;13.23;4.13;;;21.50;99.90;;;;;;5085517;28;20035;-77
2022/07/26 05:48:22;;;;;;;11.95;3.67;;;21.50;99.90;;;;;;5086068;28;20024;-75
2022/07/26 05:50:47;;;;;;;21.75;4.43;;;21.50;99.90;;;;;;5079854;28;20094;-76
2022/07/26 05:53:13;;;;;;;15.63;4.65;;;21.60;99.90;;;;;;5079114;28;20445;-76
2022/07/26 05:55:39;;;;;;;17.98;5.05;;;21.60;99.90;;;;;;5083394;28;20032;-76
2022/07/26 05:58:04;;;;;;;17.35;4.55;;;21.60;99.90;;;;;;5077536;28;20046;-76
2022/07/26 06:00:30;;;;;;;16.65;5.45;;;21.60;99.90;;;;;;5081720;28;20063;-77
2022/07/26 06:02:55;;;;;;;17.27;4.68;;;21.60;99.90;;;;;;5081171;28;20054;-76
2022/07/26 06:05:21;;;;;;;18.63;4.95;;;21.70;99.90;;;;;;5085408;28;20028;-76
2022/07/26 06:07:47;;;;;;;18.08;4.78;;;21.70;99.90;;;;;;5087126;28;20031;-76
2022/07/26 06:10:13;;;;;;;15.00;4.50;;;21.80;99.90;;;;;;5060073;28;20480;-76
2022/07/26 06:12:39;;;;;;;15.52;4.60;;;21.80;99.90;;;;;;5083386;28;20097;-76
2022/07/26 06:15:06;;;;;;;16.60;4.82;;;21.80;99.90;;;;;;5086500;28;20419;-77
2022/07/26 06:17:32;;;;;;;19.00;5.07;;;21.70;99.90;;;;;;5087669;28;20031;-76
2022/07/26 06:19:58;;;;;;;17.52;4.90;;;21.70;99.90;;;;;;5084958;28;20445;-76
2022/07/26 06:22:26;;;;;;;15.13;5.18;;;21.80;99.90;;;;;;5085365;28;20066;-76
2022/07/26 06:24:52;;;;;;;18.20;4.75;;;21.80;99.90;;;;;;5089739;28;20028;-78
2022/07/26 06:27:18;;;;;;;18.23;4.63;;;21.90;99.90;;;;;;5089258;28;20024;-77
2022/07/26 06:29:47;;;;;;;15.10;4.40;;;21.90;99.90;;;;;;5084539;28;20068;-76
2022/07/26 06:32:13;;;;;;;16.77;4.57;;;22.10;99.90;;;;;;5086263;28;20465;-77
2022/07/26 06:34:39;;;;;;;12.98;4.68;;;22.10;99.90;;;;;;5090592;28;20020;-78
2022/07/26 06:37:05;;;;;;;9.18;4.50;;;22.10;99.90;;;;;;5087337;28;20416;-77
2022/07/26 06:39:32;;;;;;;13.80;3.95;;;22.10;99.90;;;;;;5088348;28;20627;-77
2022/07/26 06:41:59;;;;;;;12.57;4.10;;;22.10;99.90;;;;;;5070269;28;20028;-76
2022/07/26 06:44:26;;;;;;;15.07;4.13;;;22.00;99.90;;;;;;5086287;28;20028;-77
2022/07/26 06:46:53;;;;;;;8.90;4.30;;;21.90;99.90;;;;;;5089734;28;20028;-77
2022/07/26 06:49:19;;;;;;;14.32;4.22;;;21.90;99.90;;;;;;5081804;28;20025;-76
2022/07/26 06:51:46;;;;;;;11.95;3.78;;;21.90;99.90;;;;;;5088250;28;20024;-75
2022/07/26 06:54:11;;;;;;;12.23;3.90;;;21.90;99.90;;;;;;5085904;28;20473;-76
2022/07/26 06:56:37;;;;;;;13.15;4.63;;;21.90;99.90;;;;;;5087207;28;20039;-78
2022/07/26 06:59:03;;;;;;;13.65;3.88;;;22.10;99.90;;;;;;5084385;28;20035;-77
2022/07/26 07:01:28;;;;;;;10.35;3.92;;;22.10;99.90;;;;;;5085832;28;20029;-78
2022/07/26 07:03:54;;;;;;;10.48;3.25;;;22.10;99.90;;;;;;5089975;28;20025;-76
2022/07/26 07:06:19;;;;;;;8.98;3.78;;;22.10;99.90;;;;;;5084429;28;20035;-78
2022/07/26 07:08:48;;;;;;;9.32;3.40;;;22.00;99.90;;;;;;5083302;28;20056;-78
2022/07/26 07:11:13;;;;;;;13.00;3.55;;;22.10;99.90;;;;;;5074190;28;20461;-77
2022/07/26 07:13:39;;;;;;;9.98;3.28;;;22.10;99.90;;;;;;5090008;28;20031;-78
2022/07/26 07:16:05;;;;;;;8.52;4.05;;;22.10;99.90;;;;;;5081339;28;20529;-79
2022/07/26 07:18:31;;;;;;;10.75;3.70;;;22.20;99.90;;;;;;5083754;28;20020;-77
2022/07/26 07:20:56;;;;;;;10.93;3.58;;;22.40;99.90;;;;;;5081021;28;20110;-78
2022/07/26 07:23:22;;;;;;;13.50;4.90;;;22.40;99.90;;;;;;5090862;28;20430;-77
2022/07/26 07:25:49;;;;;;;11.93;4.28;;;22.40;99.90;;;;;;5087860;28;20534;-81
2022/07/26 07:28:14;;;;;;;9.05;4.63;;;22.40;99.90;;;;;;5088875;28;20438;-78
2022/07/26 07:30:40;;;;;;;9.55;4.10;;;22.30;99.90;;;;;;5088810;28;20055;-78
2022/07/26 07:33:08;;;;;;;9.70;3.88;;;22.20;99.90;;;;;;5084026;28;20029;-77
2022/07/26 07:35:34;;;;;;;14.82;4.72;;;22.30;99.90;;;;;;5082697;28;20032;-77
2022/07/26 07:37:59;;;;;;;9.45;4.45;;;22.30;99.90;;;;;;5087434;28;20025;-76
2022/07/26 07:40:25;;;;;;;8.27;4.13;;;22.40;99.90;;;;;;5083792;28;20035;-75
2022/07/26 07:42:51;;;;;;;9.75;5.07;;;22.40;99.90;;;;;;5088822;28;20468;-77
2022/07/26 07:45:16;;;;;;;11.40;4.63;;;22.40;99.90;;;;;;5084716;28;20033;-76
2022/07/26 07:47:42;;;;;;;9.65;4.60;;;22.30;99.90;;;;;;5084495;28;20012;-77
2022/07/26 07:50:08;;;;;;;11.88;4.93;;;22.60;99.90;;;;;;5080108;28;20032;-76
2022/07/26 07:52:33;;;;;;;10.00;4.68;;;22.80;99.90;;;;;;5091486;28;20015;-77
2022/07/26 07:54:59;;;;;;;8.07;5.00;;;22.80;99.90;;;;;;5083367;28;20068;-77
2022/07/26 07:57:25;;;;;;;12.25;6.22;;;22.70;99.90;;;;;;5085064;28;20111;-78
2022/07/26 07:59:50;;;;;;;14.25;5.13;;;22.90;99.90;;;;;;5083626;28;20519;-78
2022/07/26 08:02:16;;;;;;;9.70;6.15;;;23.00;99.90;;;;;;5083956;28;20440;-77
2022/07/26 08:04:42;;;;;;;18.67;5.43;;;23.00;99.90;;;;;;5087778;28;20434;-77
2022/07/26 08:07:07;;;;;;;12.52;5.28;;;22.90;99.90;;;;;;5085580;28;20028;-75
2022/07/26 08:09:33;;;;;;;9.75;5.07;;;22.90;99.90;;;;;;5077501;28;20048;-77
2022/07/26 08:11:59;;;;;;;10.43;5.70;;;23.00;99.90;;;;;;5083086;28;20024;-76
2022/07/26 08:14:24;;;;;;;13.65;5.47;;;23.00;99.90;;;;;;5091703;28;20483;-76
2022/07/26 08:16:50;;;;;;;9.68;5.25;;;23.10;99.90;;;;;;5088888;28;20031;-77
2022/07/26 08:19:16;;;;;;;9.45;4.57;;;23.20;99.90;;;;;;5081693;28;20028;-76
2022/07/26 08:21:44;;;;;;;5.55;4.47;;;23.10;99.90;;;;;;5091953;28;20024;-77
2022/07/26 08:24:10;;;;;;;13.75;4.78;;;23.10;99.90;;;;;;5086873;28;20031;-76
2022/07/26 08:26:36;;;;;;;8.68;5.07;;;23.10;99.90;;;;;;5086573;28;20257;-73
2022/07/26 08:29:02;;;;;;;9.55;4.72;;;23.10;99.90;;;;;;5077322;28;20082;-73
2022/07/26 08:31:28;;;;;;;8.70;4.70;;;23.00;99.90;;;;;;5083071;28;20032;-73
2022/07/26 08:33:54;;;;;;;9.23;4.50;;;23.00;99.90;;;;;;5086522;28;20039;-73
2022/07/26 08:36:19;;;;;;;8.82;4.53;;;23.00;99.90;;;;;;5089540;28;20362;-74
2022/07/26 08:38:46;;;;;;;9.85;4.32;;;23.00;99.90;;;;;;5091799;28;20590;-74
2022/07/26 08:41:11;;;;;;;6.47;3.78;;;23.10;99.90;;;;;;5086891;28;20397;-74
2022/07/26 08:43:37;;;;;;;10.50;4.28;;;23.20;99.90;;;;;;5085449;28;20024;-73
2022/07/26 08:46:03;;;;;;;9.55;3.97;;;23.20;99.90;;;;;;5088279;28;20327;-73
2022/07/26 08:48:30;;;;;;;7.35;4.25;;;23.40;99.90;;;;;;5092757;28;20036;-73
2022/07/26 08:50:57;;;;;;;7.07;4.18;;;23.50;99.90;;;;;;5088239;28;20167;-73
2022/07/26 08:53:23;;;;;;;6.47;3.63;;;23.60;99.90;;;;;;5084090;28;20025;-73
2022/07/26 08:55:48;;;;;;;5.68;3.53;;;23.70;99.90;;;;;;5083921;28;20523;-72
2022/07/26 08:58:14;;;;;;;8.75;3.85;;;23.80;99.90;;;;;;5089598;28;20020;-73
2022/07/26 09:00:44;;;;;;;7.25;3.55;;;24.00;99.90;;;;;;5093769;28;20468;-73
2022/07/26 09:03:23;;;;;;;8.02;3.60;;;24.10;99.90;;;;;;5095458;28;20042;-73
2022/07/26 09:05:49;;;;;;;10.30;3.15;;;24.40;99.90;;;;;;5085963;28;20425;-73
2022/07/26 09:08:27;;;;;;;6.30;2.60;;;24.80;99.90;;;;;;5090739;28;20033;-73
2022/07/26 09:10:53;;;;;;;7.50;3.40;;;25.00;99.90;;;;;;5085361;28;20053;-74
2022/07/26 09:13:19;;;;;;;7.93;3.33;;;25.00;99.90;;;;;;5090180;28;20044;-73
2022/07/26 09:15:45;;;;;;;6.53;2.97;;;25.10;99.90;;;;;;5086583;28;20062;-74
2022/07/26 09:18:29;;;;;;;5.35;3.30;;;25.10;99.90;;;;;;5091060;28;20046;-75
2022/07/26 09:20:56;;;;;;;9.27;3.38;;;25.10;99.90;;;;;;5086626;28;20032;-74
2022/07/26 09:23:21;;;;;;;10.25;3.35;;;24.90;99.90;;;;;;5088851;28;20024;-74
2022/07/26 09:25:47;;;;;;;8.13;2.60;;;24.80;99.90;;;;;;5086028;28;20127;-75
2022/07/26 09:28:27;;;;;;;10.20;2.15;;;24.60;99.90;;;;;;5088463;28;20016;-74
2022/07/26 09:30:55;;;;;;;8.45;2.53;;;24.80;99.90;;;;;;5086138;28;20170;-74
2022/07/26 09:33:20;;;;;;;3.50;2.22;;;24.80;99.90;;;;;;5093371;28;20016;-74
2022/07/26 09:36:04;;;;;;;4.10;1.80;;;24.60;99.90;;;;;;5089398;28;20043;-73
2022/07/26 09:38:53;;;;;;;5.72;2.10;;;24.70;99.30;;;;;;5087556;28;20030;-75
2022/07/26 09:41:34;;;;;;;4.20;1.90;;;24.70;99.90;;;;;;5087610;28;20025;-75
2022/07/26 09:44:05;;;;;;;6.20;1.77;;;24.80;99.90;;;;;;5084477;28;20476;-75
2022/07/26 09:46:34;;;;;;;4.88;1.77;;;24.80;99.50;;;;;;5086199;28;20034;-74
2022/07/26 09:49:17;;;;;;;4.03;1.60;;;24.80;99.80;;;;;;5091322;28;20477;-75
2022/07/26 09:51:45;;;;;;;5.75;1.88;;;24.60;99.20;;;;;;5088012;28;20033;-74
2022/07/26 09:54:17;;;;;;;4.82;1.63;;;24.50;99.80;;;;;;5095094;28;20380;-75
2022/07/26 09:56:45;;;;;;;5.90;1.80;;;24.50;99.90;;;;;;5091624;28;20039;-76
2022/07/26 09:59:16;;;;;;;6.60;1.92;;;24.50;99.90;;;;;;5092606;28;20032;-75
2022/07/26 10:01:43;;;;;;;3.55;2.55;;;24.50;99.90;;;;;;5083722;28;20032;-73
2022/07/26 10:04:09;;;;;;;5.25;2.03;;;24.50;99.90;;;;;;5086263;28;20518;-73
2022/07/26 10:06:34;;;;;;;9.10;2.47;;;24.30;99.90;;;;;;5084785;28;20118;-72
2022/07/26 10:09:01;;;;;;;3.45;2.13;;;24.20;99.90;;;;;;5080472;28;20077;-72
2022/07/26 10:11:34;;;;;;;4.90;2.55;;;24.20;99.90;;;;;;5083326;28;20520;-72
2022/07/26 10:14:00;;;;;;;4.40;2.17;;;24.30;99.90;;;;;;5088673;28;20028;-72
2022/07/26 10:16:31;;;;;;;3.95;1.95;;;24.40;99.90;;;;;;5085156;28;20139;-72
2022/07/26 10:18:58;;;;;;;2.03;1.70;;;24.50;99.90;;;;;;5083434;28;20029;-73
2022/07/26 10:21:25;;;;;;;3.20;2.08;;;24.50;99.90;;;;;;5095289;28;20090;-73
2022/07/26 10:23:57;;;;;;;4.75;2.53;;;24.50;99.90;;;;;;5088707;28;20028;-73
2022/07/26 10:26:34;;;;;;;4.13;2.17;;;24.50;99.90;;;;;;5090908;28;20384;-73
2022/07/26 10:29:15;;;;;;;3.17;2.10;;;24.70;99.90;;;;;;5082222;28;20028;-72
2022/07/26 10:31:48;;;;;;;2.97;2.00;;;24.90;99.90;;;;;;5092408;28;20032;-72
2022/07/26 10:34:43;;;;;;;;;;;24.90;99.90;;;;;;5091220;28;20477;-73
2022/07/26 10:37:19;;;;;;;6.40;2.20;;;25.00;99.90;;;;;;5084322;28;19908;-73
2022/07/26 10:39:44;;;;;;;8.50;2.35;;;25.10;99.90;;;;;;5082395;28;20103;-73
2022/07/26 10:42:10;;;;;;;7.88;2.63;;;25.50;99.90;;;;;;5084560;28;20462;-73
2022/07/26 10:44:40;;;;;;;4.15;2.20;;;25.50;99.90;;;;;;5092394;28;20059;-72
2022/07/26 10:47:05;;;;;;;7.60;2.60;;;25.40;99.90;;;;;;5081623;28;20160;-73
2022/07/26 10:49:38;;;;;;;6.75;2.63;;;25.30;99.90;;;;;;5087207;28;20118;-73
2022/07/26 10:52:05;;;;;;;5.63;2.40;;;25.10;99.90;;;;;;5090084;28;20030;-73
2022/07/26 10:54:31;;;;;;;4.25;2.72;;;25.00;99.90;;;;;;5089275;28;20024;-73
2022/07/26 10:56:57;;;;;;;3.45;2.55;;;24.80;99.90;;;;;;5087429;28;20035;-73
2022/07/26 10:59:32;;;;;;;7.20;3.08;;;24.60;99.90;;;;;;5082113;28;20031;-72
2022/07/26 11:01:58;;;;;;;8.25;3.63;;;24.20;99.90;;;;;;5086425;28;20598;-76
2022/07/26 11:04:24;;;;;;;9.73;4.13;;;24.20;99.90;;;;;;5081474;28;20024;-80
2022/07/26 11:06:51;;;;;;;6.38;3.90;;;24.00;99.90;;;;;;5084166;28;20028;-74
2022/07/26 11:09:22;;;;;;;5.75;5.28;;;23.90;99.90;;;;;;5085426;28;20158;-76
2022/07/26 11:11:51;;;;;;;5.82;4.75;;;23.80;99.90;;;;;;5079510;28;20462;-77
2022/07/26 11:14:18;;;;;;;6.45;4.95;;;23.90;99.90;;;;;;5094557;28;20405;-74
2022/07/26 11:16:49;;;;;;;6.38;4.90;;;24.00;99.90;;;;;;5089648;28;20118;-75
2022/07/26 11:19:26;;;;;;;5.45;5.05;;;24.10;99.90;;;;;;5089075;28;20024;-74
2022/07/26 11:22:01;;;;;;;7.70;5.88;;;24.10;99.90;;;;;;5090183;28;20054;-74
2022/07/26 11:24:27;;;;;;;11.02;5.18;;;24.20;99.90;;;;;;5090496;28;20514;-75
2022/07/26 11:26:56;;;;;;;3.88;3.47;;;24.20;99.90;;;;;;5079348;28;20051;-74
2022/07/26 11:29:40;;;;;;;4.82;3.08;;;24.00;99.90;;;;;;5083632;28;20109;-73
2022/07/26 11:32:15;;;;;;;4.00;3.70;;;23.90;99.90;;;;;;5084651;28;20380;-73
2022/07/26 11:34:44;;;;;;;4.65;3.35;;;23.80;99.90;;;;;;5084697;28;20064;-73
2022/07/26 11:37:13;;;;;;;3.75;3.10;;;23.80;99.90;;;;;;5077846;28;20473;-73
2022/07/26 11:39:39;;;;;;;3.42;3.10;;;23.70;99.90;;;;;;5087864;28;20428;-73
2022/07/26 11:42:11;;;;;;;3.97;3.50;;;23.60;99.90;;;;;;5084331;28;20520;-72
2022/07/26 11:44:42;;;;;;;5.50;5.00;;;23.60;99.90;;;;;;5088014;28;20044;-73
2022/07/26 11:47:21;;;;;;;5.93;4.43;;;23.50;99.90;;;;;;5089642;28;20055;-73
2022/07/26 11:49:47;;;;;;;7.10;4.72;;;23.40;99.90;;;;;;5086870;28;20206;-74
2022/07/26 11:52:13;;;;;;;6.55;4.28;;;23.30;99.90;;;;;;5090304;28;20035;-74
2022/07/26 11:54:48;;;;;;;6.35;5.35;;;23.40;99.90;;;;;;5091201;28;20119;-74
2022/07/26 11:57:16;;;;;;;6.63;4.50;;;23.30;99.90;;;;;;5066810;28;20147;-75
2022/07/26 11:59:49;;;;;;;6.80;4.80;;;23.20;99.90;;;;;;5086670;28;20024;-75
2022/07/26 12:02:15;;;;;;;5.90;4.68;;;23.20;99.90;;;;;;5089997;28;20038;-73
2022/07/26 12:04:42;;;;;;;4.47;4.07;;;23.30;99.90;;;;;;5084030;28;20028;-76
2022/07/26 12:07:13;;;;;;;9.45;4.10;;;23.20;99.90;;;;;;5088595;28;20110;-74
2022/07/26 12:09:49;;;;;;;5.97;3.92;;;23.20;99.90;;;;;;5086590;28;20042;-75
2022/07/26 12:12:21;;;;;;;7.90;3.85;;;23.20;99.90;;;;;;5092523;28;20033;-76
2022/07/26 12:14:59;;;;;;;4.37;3.97;;;23.20;99.90;;;;;;5092980;28;20036;-75
2022/07/26 12:17:27;;;;;;;5.47;3.20;;;23.30;99.90;;;;;;5088135;28;20047;-76
2022/07/26 12:19:53;;;;;;;5.15;3.22;;;23.40;99.90;;;;;;5083560;28;20059;-76
2022/07/26 12:22:22;;;;;;;9.13;3.53;;;23.40;99.90;;;;;;5088003;28;20024;-75
2022/07/26 12:24:56;;;;;;;7.30;3.83;;;23.30;99.90;;;;;;5088616;28;20034;-75
2022/07/26 12:27:30;;;;;;;4.00;3.58;;;23.40;99.90;;;;;;5088488;28;20023;-75
2022/07/26 12:30:14;;;;;;;3.95;3.55;;;23.40;99.90;;;;;;5081223;28;20111;-74
2022/07/26 12:32:45;;;;;;;5.88;3.90;;;23.30;99.90;;;;;;5089277;28;20088;-76
2022/07/26 12:35:12;;;;;;;4.97;3.47;;;23.30;99.90;;;;;;5090585;28;20031;-77
2022/07/26 12:37:44;;;;;;;6.43;4.03;;;23.30;99.90;;;;;;5087644;28;20036;-76
2022/07/26 12:40:11;;;;;;;7.00;3.13;;;23.40;99.90;;;;;;5090179;28;20043;-75
2022/07/26 12:42:40;;;;;;;3.33;1.98;;;23.20;99.90;;;;;;5088324;28;20032;-75
2022/07/26 12:45:08;;;;;;;3.45;1.90;;;23.20;99.90;;;;;;5089001;28;20077;-74
2022/07/26 12:47:38;;;;;;;2.35;1.40;;;23.20;99.90;;;;;;5087999;28;20141;-75